Time;durP1;ratioP1;P1;durP2;ratioP2;P2;SDS_P1;SDS_P2;PMS_P1;PMS_P2;Temp;Humidity;BMP_temperature;BMP_pressure;BME280_temperature;BME280_humidity;BME280_pressure;Samples;Min_cycle;Max_cycle;Signal;HPM_P1;HPM_P2
2023/10/16 00:01:26;;;;;;;5.87;1.67;;;;;;;-145.69;67.61;52266.16;5094336;28;20209;-79
2023/10/16 00:03:53;;;;;;;3.47;1.40;;;;;;;-145.69;67.65;52293.88;5094465;28;20205;-79
2023/10/16 00:06:20;;;;;;;3.90;1.10;;;;;;;-145.69;67.91;52270.13;5094190;28;20225;-79
2023/10/16 00:08:53;;;;;;;4.03;1.30;;;;;;;-145.69;67.73;52262.19;5094177;28;20203;-79
2023/10/16 00:11:23;;;;;;;7.83;1.50;;;;;;;-145.69;67.54;52291.91;5094408;28;20229;-79
2023/10/16 00:13:50;;;;;;;5.97;1.47;;;;;;;-145.69;67.32;52260.22;5094213;28;20225;-79
2023/10/16 00:16:18;;;;;;;1.40;1.10;;;;;;;-145.69;67.38;52244.38;5094115;28;20255;-79
2023/10/16 00:18:47;;;;;;;2.87;1.17;;;;;;;-145.69;67.30;52266.16;5094025;28;20226;-79
2023/10/16 00:21:14;;;;;;;5.70;1.40;;;;;;;-145.69;67.51;52230.50;5094144;28;20252;-79
2023/10/16 00:23:41;;;;;;;8.33;1.40;;;;;;;-145.69;67.85;52262.19;5094143;28;20202;-79
2023/10/16 00:26:10;;;;;;;2.10;1.20;;;;;;;-145.69;68.65;52262.19;5094068;28;20229;-79
2023/10/16 00:28:37;;;;;;;1.83;1.20;;;;;;;-145.69;68.02;52226.53;5093733;28;20190;-80
2023/10/16 00:31:08;;;;;;;3.13;1.67;;;;;;;-145.69;67.35;52254.28;5093869;28;20201;-79
2023/10/16 00:33:36;;;;;;;4.07;1.37;;;;;;;-145.69;67.82;52262.19;5093963;28;20198;-79
2023/10/16 00:36:05;;;;;;;6.97;1.57;;;;;;;-145.69;66.98;52258.22;5093836;28;20202;-80
2023/10/16 00:38:37;;;;;;;4.40;1.40;;;;;;;-145.69;68.20;52214.66;5093840;28;20197;-79
2023/10/16 00:41:15;;;;;;;4.27;1.53;;;;;;;-145.69;67.33;52283.97;5093819;28;20557;-81
2023/10/16 00:43:43;;;;;;;3.50;1.67;;;;;;;-145.69;67.08;52224.56;5094121;28;20197;-79
2023/10/16 00:46:10;;;;;;;4.43;1.30;;;;;;;-145.69;68.27;52236.44;5093896;28;20208;-80
2023/10/16 00:48:39;;;;;;;5.43;1.20;;;;;;;-145.69;67.60;52262.19;5093450;28;20670;-80
2023/10/16 00:51:09;;;;;;;4.77;1.60;;;;;;;-145.69;67.26;52270.13;5092771;28;20194;-79
2023/10/16 00:53:37;;;;;;;3.67;1.60;;;;;;;-145.69;67.88;52246.34;5093646;28;20209;-80
2023/10/16 00:56:08;;;;;;;4.80;1.40;;;;;;;-145.69;68.50;52297.84;5093775;28;20582;-79
2023/10/16 00:58:35;;;;;;;4.87;1.60;;;;;;;-145.69;68.00;52254.28;5093536;28;20280;-79
2023/10/16 01:01:04;;;;;;;3.93;1.67;;;;;;;-145.69;68.70;52240.41;5091608;28;20552;-78
2023/10/16 01:03:36;;;;;;;2.33;1.30;;;;;;;-145.69;67.89;52252.28;5090985;28;20239;-79
2023/10/16 01:06:09;;;;;;;5.43;1.77;;;;;;;-145.69;67.33;52222.59;5093405;28;20228;-79
2023/10/16 01:08:52;;;;;;;2.30;1.13;;;;;;;-145.69;67.33;52222.59;5093186;28;20198;-79
2023/10/16 01:11:20;;;;;;;2.13;1.23;;;;;;;-145.69;67.91;52278.03;5092985;28;20289;-80
2023/10/16 01:13:50;;;;;;;1.87;1.37;;;;;;;-145.69;67.50;52254.28;5093211;28;20243;-80
2023/10/16 01:16:18;;;;;;;4.37;1.40;;;;;;;-145.69;68.54;52246.34;5093338;28;20204;-80
2023/10/16 01:18:46;;;;;;;3.73;1.30;;;;;;;-145.69;68.62;52270.13;5092615;28;20234;-79
2023/10/16 01:21:14;;;;;;;3.80;1.47;;;;;;;-145.69;67.84;52258.22;5093052;28;20725;-80
2023/10/16 01:23:44;;;;;;;3.50;1.83;;;;;;;-145.69;68.48;52262.19;5092704;28;20205;-79
2023/10/16 01:26:13;;;;;;;8.20;1.60;;;;;;;-145.69;68.27;52256.25;5092837;28;20285;-79
2023/10/16 01:28:44;;;;;;;5.70;1.27;;;;;;;-145.69;68.91;52258.22;5093179;28;20209;-79
2023/10/16 01:31:13;;;;;;;4.80;1.27;;;;;;;-145.69;68.50;52282.00;5092970;28;20210;-79
2023/10/16 01:33:44;;;;;;;2.13;1.43;;;;;;;-145.69;67.85;52262.19;5093153;28;20204;-79
2023/10/16 01:36:13;;;;;;;3.43;1.50;;;;;;;-145.69;67.48;52258.22;5092879;28;20194;-79
2023/10/16 01:38:41;;;;;;;6.50;1.37;;;;;;;-145.69;68.05;52244.38;5092932;28;20224;-79
2023/10/16 01:41:13;;;;;;;1.83;1.27;;;;;;;-145.69;67.77;52250.31;5092955;28;20198;-79
2023/10/16 01:43:43;;;;;;;10.17;1.50;;;;;;;-145.69;67.43;52248.34;5091803;28;20202;-79
2023/10/16 01:46:12;;;;;;;3.73;1.40;;;;;;;-145.69;67.59;52246.34;5092667;28;20202;-80
2023/10/16 01:48:41;;;;;;;3.10;1.63;;;;;;;-145.69;67.98;52240.41;5092663;28;20221;-79
2023/10/16 01:51:09;;;;;;;2.20;1.30;;;;;;;-145.69;67.72;52291.91;5092900;28;20197;-80
2023/10/16 01:53:39;;;;;;;4.47;1.47;;;;;;;-145.69;67.68;52250.31;5092859;28;20209;-80
2023/10/16 01:56:13;;;;;;;1.90;1.30;;;;;;;-145.69;67.93;52228.53;5092653;28;20202;-80
2023/10/16 01:58:44;;;;;;;3.47;1.60;;;;;;;-145.69;68.03;52234.47;5092798;28;20210;-80
2023/10/16 02:01:11;;;;;;;5.77;1.50;;;;;;;-145.69;67.38;52236.44;5092685;28;20294;-80
2023/10/16 02:03:43;;;;;;;4.53;1.80;;;;;;;-145.69;67.48;52212.69;5092708;28;20198;-80
2023/10/16 02:06:11;;;;;;;4.27;1.60;;;;;;;-145.69;68.38;52274.06;5072563;28;20646;-80
2023/10/16 02:08:37;;;;;;;2.37;1.57;;;;;;;-145.69;68.12;52250.31;5072340;28;20791;-80
2023/10/16 02:11:04;;;;;;;2.10;1.27;;;;;;;-145.69;67.93;52250.31;5072488;28;20198;-80
2023/10/16 02:13:35;;;;;;;2.07;1.33;;;;;;;-145.69;67.97;52236.44;5072582;28;20206;-80
2023/10/16 02:16:02;;;;;;;3.03;1.50;;;;;;;-145.69;68.17;52270.13;5075741;28;20190;-79
2023/10/16 02:18:36;;;;;;;5.33;1.77;;;;;;;-145.69;68.10;52230.50;5092501;28;20236;-80
2023/10/16 02:21:03;;;;;;;4.23;1.77;;;;;;;-145.69;68.14;52297.84;5092867;28;20645;-80
2023/10/16 02:23:32;;;;;;;2.60;1.40;;;;;;;-145.69;68.46;52285.97;5092483;28;20252;-79
2023/10/16 02:26:01;;;;;;;2.70;1.63;;;;;;;-145.69;68.20;52262.19;5092434;28;20204;-80
2023/10/16 02:28:31;;;;;;;3.40;1.60;;;;;;;-145.69;68.38;52250.31;5091813;28;20237;-79
2023/10/16 02:31:10;;;;;;;3.27;1.37;;;;;;;-145.69;68.07;52254.28;5092542;28;20212;-81
2023/10/16 02:33:37;;;;;;;4.77;1.63;;;;;;;-145.69;68.00;52218.63;5092053;28;20688;-79
2023/10/16 02:36:07;;;;;;;7.77;1.80;;;;;;;-145.69;68.31;52299.81;5092449;28;20200;-79
2023/10/16 02:38:37;;;;;;;5.73;1.90;;;;;;;-145.69;68.42;52278.03;5092133;28;20194;-79
2023/10/16 02:41:04;;;;;;;2.40;1.40;;;;;;;-145.69;67.77;52250.31;5092137;28;20198;-81
2023/10/16 02:43:33;;;;;;;3.97;1.37;;;;;;;-145.69;68.05;52228.53;5092327;28;20293;-79
2023/10/16 02:46:04;;;;;;;2.40;1.47;;;;;;;-145.69;68.53;52254.28;5092356;28;20198;-80
2023/10/16 02:48:35;;;;;;;1.97;1.50;;;;;;;-145.69;68.94;52262.19;5088884;28;20320;-79
2023/10/16 02:51:02;;;;;;;5.33;1.63;;;;;;;-145.69;68.64;52250.31;5092115;28;20207;-79
2023/10/16 02:53:30;;;;;;;3.50;1.47;;;;;;;-145.69;67.90;52280.00;5092132;28;20198;-80
2023/10/16 02:56:03;;;;;;;4.10;1.47;;;;;;;-145.69;67.97;52258.22;5094781;28;20202;-79
2023/10/16 02:58:29;;;;;;;2.77;1.73;;;;;;;-145.69;68.40;52242.38;5095756;28;20255;-79
2023/10/16 03:00:59;;;;;;;3.57;1.50;;;;;;;-145.69;68.08;52274.06;5089942;28;20201;-81
2023/10/16 03:03:28;;;;;;;2.13;1.50;;;;;;;-145.69;68.07;52268.13;5075383;28;20253;-81
2023/10/16 03:05:58;;;;;;;2.40;1.77;;;;;;;-145.69;67.95;52226.53;5091693;28;20608;-79
2023/10/16 03:08:30;;;;;;;3.43;1.60;;;;;;;-145.69;67.43;52238.44;5095631;28;20225;-80
2023/10/16 03:11:06;;;;;;;8.53;2.03;;;;;;;-145.69;67.40;52224.56;5095694;28;20552;-80
2023/10/16 03:13:35;;;;;;;5.33;1.90;;;;;;;-145.69;68.20;52242.38;5095415;28;20292;-81
2023/10/16 03:16:07;;;;;;;5.30;1.63;;;;;;;-145.69;68.10;52266.16;5094990;28;20726;-81
2023/10/16 03:18:42;;;;;;;6.57;1.70;;;;;;;-145.69;67.78;52250.31;5091721;28;20634;-81
2023/10/16 03:21:26;;;;;;;5.30;1.87;;;;;;;-145.69;68.52;52274.06;5095004;28;20205;-81
2023/10/16 03:23:53;;;;;;;6.43;1.90;;;;;;;-145.69;68.24;52268.13;5095159;28;20698;-81
2023/10/16 03:26:25;;;;;;;3.70;1.77;;;;;;;-145.69;68.00;52248.34;5095522;28;20238;-81
2023/10/16 03:28:52;;;;;;;9.00;1.87;;;;;;;-145.69;67.73;52246.34;5095136;28;20233;-82
2023/10/16 03:31:18;;;;;;;5.07;1.83;;;;;;;-145.69;67.88;52270.13;5095358;28;20198;-80
2023/10/16 03:33:46;;;;;;;5.10;2.00;;;;;;;-145.69;68.31;52248.34;5095120;28;20195;-80
2023/10/16 03:36:14;;;;;;;12.03;2.10;;;;;;;-145.69;67.85;52230.50;5095202;28;20221;-80
2023/10/16 03:38:42;;;;;;;8.37;2.20;;;;;;;-145.69;68.35;52282.00;5095588;28;20205;-80
2023/10/16 03:41:19;;;;;;;4.40;1.63;;;;;;;-145.69;68.01;52260.22;5094686;28;20190;-80
2023/10/16 03:43:46;;;;;;;2.23;1.67;;;;;;;-145.69;67.66;52262.19;5095046;28;20277;-80
2023/10/16 03:46:13;;;;;;;6.37;1.87;;;;;;;-145.69;67.60;52208.72;5094485;28;20208;-83
2023/10/16 03:48:40;;;;;;;7.37;2.07;;;;;;;-145.69;67.91;52240.41;5094586;28;20275;-80
2023/10/16 03:51:10;;;;;;;2.93;1.70;;;;;;;-145.69;68.13;52262.19;5094457;28;20186;-80
2023/10/16 03:53:37;;;;;;;3.23;1.67;;;;;;;-145.69;68.05;52246.34;5094782;28;20197;-81
2023/10/16 03:56:05;;;;;;;2.00;1.60;;;;;;;-145.69;68.02;52250.31;5094773;28;20289;-81
2023/10/16 03:58:35;;;;;;;4.23;1.90;;;;;;;-145.69;67.64;52266.16;5094727;28;20202;-81
2023/10/16 04:01:08;;;;;;;6.50;1.70;;;;;;;-145.69;67.18;52244.38;5094314;28;20205;-81
2023/10/16 04:03:46;;;;;;;3.57;1.50;;;;;;;-145.69;67.45;52258.22;5094230;28;20251;-79
2023/10/16 04:06:19;;;;;;;3.10;1.30;;;;;;;-145.69;68.08;52258.22;5094350;28;20281;-80
2023/10/16 04:08:45;;;;;;;4.40;1.40;;;;;;;-145.69;67.10;52236.44;5094307;28;20226;-80
2023/10/16 04:11:12;;;;;;;3.13;1.70;;;;;;;-145.69;67.43;52240.41;5094534;28;20263;-80
2023/10/16 04:13:47;;;;;;;4.30;1.80;;;;;;;-145.69;68.21;52258.22;5093830;28;20194;-80
2023/10/16 04:16:29;;;;;;;5.43;1.90;;;;;;;-145.69;67.85;52254.28;5093471;28;20194;-83
2023/10/16 04:19:07;;;;;;;4.30;1.70;;;;;;;-145.69;67.00;52268.13;5092489;28;20584;-82
2023/10/16 04:21:43;;;;;;;4.80;1.93;;;;;;;-145.69;68.02;52274.06;5094334;28;20202;-81
2023/10/16 04:24:30;;;;;;;3.10;1.77;;;;;;;-145.69;67.45;52270.13;5094021;28;20229;-80
2023/10/16 04:27:29;;;;;;;4.50;1.97;;;;;;;-145.69;67.62;52204.75;5093411;28;20205;-80
2023/10/16 04:29:49;;;;;;;4.73;1.97;;;;;;;-145.69;67.84;52244.38;5093965;28;20190;-82
2023/10/16 04:32:20;;;;;;;4.90;2.17;;;;;;;-145.69;68.15;52236.44;5094070;28;20198;-80
2023/10/16 04:34:53;;;;;;;4.87;1.97;;;;;;;-145.69;67.80;52254.28;5094008;28;20198;-81
2023/10/16 04:37:24;;;;;;;6.70;2.17;;;;;;;-145.69;68.51;52244.38;5093829;28;20197;-81
2023/10/16 04:45:25;;;;;;;6.30;2.60;;;;;;;-145.69;68.92;52285.97;5093855;28;20197;-81
2023/10/16 04:48:06;;;;;;;6.93;2.20;;;;;;;-145.69;68.39;52244.38;5093186;28;20256;-81
2023/10/16 04:50:40;;;;;;;4.60;2.93;;;;;;;-145.69;68.43;52228.53;5093838;28;20359;-81
2023/10/16 04:53:08;;;;;;;7.00;2.60;;;;;;;-145.69;68.12;52278.03;5093698;28;20194;-79
2023/10/16 04:56:04;;;;;;;4.43;2.30;;;;;;;-145.69;67.58;52262.19;5093324;28;20656;-80
2023/10/16 04:58:39;;;;;;;3.77;1.90;;;;;;;-145.69;67.06;52268.13;5093760;28;20202;-80
2023/10/16 05:06:49;;;;;;;3.83;2.20;;;;;;;-145.69;68.44;52254.28;5093537;28;20205;-81
2023/10/16 05:17:59;;;;;;;9.10;2.00;;;;;;;-145.69;68.48;52246.34;5091298;28;20233;-80
2023/10/16 06:15:21;;;;;;;5.43;2.10;;;;;;;-145.69;70.01;52278.03;5080353;28;20526;-80
2023/10/16 06:17:51;;;;;;;4.50;2.50;;;;;;;-145.69;69.49;52266.16;5092469;28;20696;-80
2023/10/16 06:20:21;;;;;;;8.10;2.30;;;;;;;-145.69;69.81;52270.13;5092489;28;20208;-80
2023/10/16 06:22:51;;;;;;;9.97;2.80;;;;;;;-145.69;69.27;52238.44;5092294;28;20196;-80
2023/10/16 06:25:19;;;;;;;4.47;2.20;;;;;;;-145.69;69.67;52236.44;5092292;28;20199;-80
2023/10/16 06:27:47;;;;;;;5.13;2.27;;;;;;;-145.69;69.86;52250.31;5092055;28;20218;-80
2023/10/16 06:30:18;;;;;;;8.10;2.70;;;;;;;-145.69;69.65;52242.38;5095709;28;20705;-80
2023/10/16 06:32:52;;;;;;;6.20;2.70;;;;;;;-145.69;69.39;52210.72;5096215;28;20560;-80
2023/10/16 06:35:19;;;;;;;4.30;2.40;;;;;;;-145.69;69.70;52258.22;5096074;28;20197;-80
2023/10/16 06:37:51;;;;;;;7.80;2.10;;;;;;;-145.69;69.60;52246.34;5095790;28;20198;-80
2023/10/16 06:40:25;;;;;;;5.27;2.00;;;;;;;-145.69;70.21;52246.34;5095749;28;20251;-80
2023/10/16 06:43:10;;;;;;;8.07;2.00;;;;;;;-145.69;69.74;52234.47;5096351;28;20198;-80
2023/10/16 06:45:41;;;;;;;3.97;2.20;;;;;;;-145.69;69.83;52282.00;5096266;28;20201;-80
2023/10/16 06:48:14;;;;;;;5.73;2.37;;;;;;;-145.69;69.35;52232.50;5095529;28;20229;-80
2023/10/16 06:50:45;;;;;;;6.00;2.37;;;;;;;-145.69;69.37;52256.25;5096295;28;20202;-80
2023/10/16 06:53:12;;;;;;;8.00;3.17;;;;;;;-145.69;69.92;52258.22;5095813;28;20221;-80
2023/10/16 06:55:38;;;;;;;5.37;2.60;;;;;;;-145.69;70.06;52240.41;5096021;28;20609;-80
2023/10/16 06:58:06;;;;;;;7.43;2.00;;;;;;;-145.69;70.38;52254.28;5091416;28;20565;-80
2023/10/16 07:00:33;;;;;;;5.07;2.20;;;;;;;-145.69;69.98;52234.47;5095424;28;20202;-81
2023/10/16 07:03:01;;;;;;;5.27;2.00;;;;;;;-145.69;70.18;52242.38;5095770;28;20263;-80
2023/10/16 07:05:42;;;;;;;3.03;1.73;;;;;;;-145.69;70.03;52250.31;5095396;28;20560;-80
2023/10/16 07:08:16;;;;;;;7.33;2.80;;;;;;;-145.69;68.96;52266.16;5096073;28;20267;-80
2023/10/16 07:10:53;;;;;;;6.37;3.10;;;;;;;-145.69;69.00;52236.44;5095667;28;20220;-80
2023/10/16 07:13:27;;;;;;;8.43;3.43;;;;;;;-145.69;68.94;52200.81;5095749;28;20202;-80
2023/10/16 07:16:00;;;;;;;7.05;3.10;;;;;;;-145.69;69.48;52238.44;5094868;28;20931;-80
2023/10/16 07:18:28;;;;;;;6.23;2.60;;;;;;;-145.69;67.80;52282.00;5095469;28;20661;-80
2023/10/16 07:21:07;;;;;;;8.37;2.83;;;;;;;-145.69;68.19;52214.66;5095503;28;20198;-80
2023/10/16 07:23:35;;;;;;;6.37;2.70;;;;;;;-145.69;67.52;52226.53;5094590;28;20298;-80
2023/10/16 07:26:02;;;;;;;8.80;2.77;;;;;;;-145.69;66.19;52222.59;5095719;28;20207;-80
2023/10/16 07:28:38;;;;;;;6.10;2.90;;;;;;;-145.69;66.65;52181.00;5095068;28;20278;-80
2023/10/16 07:31:10;;;;;;;6.10;2.50;;;;;;;-145.69;66.62;52224.56;5095270;28;20215;-80
2023/10/16 07:33:36;;;;;;;5.33;2.50;;;;;;;-145.69;66.95;52246.34;5095214;28;20607;-80
2023/10/16 07:36:10;;;;;;;3.90;2.23;;;;;;;-145.69;67.82;52238.44;5094900;28;20193;-80
2023/10/16 07:38:38;;;;;;;3.93;2.50;;;;;;;-145.69;66.11;52226.53;5095096;28;20260;-80
2023/10/16 07:41:09;;;;;;;5.30;2.57;;;;;;;-145.69;66.36;52226.53;5094431;28;20637;-80
2023/10/16 07:43:39;;;;;;;2.17;1.93;;;;;;;-145.69;66.33;52238.44;5095097;28;20206;-80
2023/10/16 07:46:29;;;;;;;4.13;2.17;;;;;;;-145.69;66.39;52226.53;5094967;28;20293;-80
2023/10/16 07:49:01;;;;;;;5.93;2.40;;;;;;;-145.69;65.73;52194.88;5094604;28;20267;-79
2023/10/16 07:51:29;;;;;;;5.23;2.47;;;;;;;-145.69;65.24;52244.38;5095091;28;20202;-79
2023/10/16 07:53:59;;;;;;;6.27;2.87;;;;;;;-145.69;63.76;52224.56;5094338;28;20566;-79
2023/10/16 07:56:28;;;;;;;4.07;2.47;;;;;;;-145.69;64.90;52216.66;5094856;28;20206;-80
2023/10/16 07:58:56;;;;;;;9.27;2.50;;;;;;;-145.69;62.81;52194.88;5094650;28;20300;-80
2023/10/16 08:01:42;;;;;;;4.30;2.43;;;;;;;-145.69;63.21;52214.66;5094538;28;20198;-80
2023/10/16 08:04:27;;;;;;;6.23;2.37;;;;;;;-145.69;62.62;52222.59;5093559;28;20198;-79
2023/10/16 08:06:57;;;;;;;6.17;2.30;;;;;;;-145.69;60.81;52206.75;5094472;28;20210;-79
2023/10/16 08:12:18;;;;;;;3.97;2.10;;;;;;;-145.69;60.38;52248.34;5094066;28;20611;-80
2023/10/16 08:14:44;;;;;;;5.03;1.77;;;;;;;-145.69;59.99;52224.56;5094380;28;20290;-80
2023/10/16 08:17:15;;;;;;;3.27;1.80;;;;;;;-145.69;58.56;52179.03;5094203;28;20225;-79
2023/10/16 08:19:41;;;;;;;3.33;1.60;;;;;;;-145.69;60.54;52226.53;5094776;28;20198;-80
2023/10/16 08:22:13;;;;;;;5.37;1.70;;;;;;;-145.69;57.27;52171.09;5094524;28;20197;-80
2023/10/16 08:24:43;;;;;;;2.50;1.87;;;;;;;-145.69;58.11;52230.50;5094062;28;20687;-80
2023/10/16 08:27:19;;;;;;;2.67;1.63;;;;;;;-145.69;56.90;52167.13;5094147;28;20643;-80
2023/10/16 08:29:54;;;;;;;6.00;1.50;;;;;;;-145.69;57.53;52186.94;5094104;28;20584;-80
2023/10/16 08:35:10;;;;;;;3.83;1.27;;;;;;;-145.69;56.83;52188.91;5078085;28;20268;-80
2023/10/16 08:37:40;;;;;;;1.97;1.30;;;;;;;-145.69;56.35;52198.81;5093969;28;20652;-80
2023/10/16 08:40:19;;;;;;;10.70;1.50;;;;;;;-145.69;54.13;52186.94;5094041;28;20548;-81
2023/10/16 08:42:50;;;;;;;3.20;1.30;;;;;;;-145.69;55.19;52186.94;5093787;28;20710;-81
2023/10/16 08:45:24;;;;;;;2.10;1.40;;;;;;;-145.69;53.34;52181.00;5094138;28;20202;-80
2023/10/16 08:47:52;;;;;;;6.43;1.30;;;;;;;-145.69;54.49;52190.91;5094332;28;20220;-80
2023/10/16 08:50:24;;;;;;;4.90;1.10;;;;;;;-145.69;55.01;52179.03;5093812;28;20229;-80
2023/10/16 08:52:58;;;;;;;4.23;1.20;;;;;;;-145.69;54.09;52204.75;5093795;28;20194;-81
2023/10/16 08:55:26;;;;;;;2.53;1.20;;;;;;;-145.69;52.62;52186.94;5093772;28;20202;-80
2023/10/16 08:57:53;;;;;;;4.33;1.50;;;;;;;-145.69;53.25;52230.50;5093801;28;20198;-80
2023/10/16 09:00:24;;;;;;;3.00;1.27;;;;;;;-145.69;52.21;52186.94;5093738;28;20289;-80
2023/10/16 09:02:52;;;;;;;3.50;1.40;;;;;;;-145.69;52.52;52208.72;5093278;28;20190;-80
2023/10/16 09:05:20;;;;;;;3.70;1.00;;;;;;;-145.69;49.63;52167.13;5093547;28;20202;-80
2023/10/16 09:07:48;;;;;;;3.90;1.37;;;;;;;-145.69;51.03;52208.72;5089845;28;20213;-80
2023/10/16 09:10:20;;;;;;;1.60;1.07;;;;;;;-145.69;51.27;52153.28;5093181;28;20229;-79
2023/10/16 09:12:54;;;;;;;3.57;1.10;;;;;;;-145.69;51.15;52194.88;5073211;28;20210;-79
2023/10/16 09:15:24;;;;;;;3.77;1.23;;;;;;;-145.69;50.42;52175.06;5077165;28;20596;-79
2023/10/16 09:17:51;;;;;;;1.57;1.10;;;;;;;-145.69;51.15;52157.25;5093438;28;20225;-80
2023/10/16 09:20:22;;;;;;;4.43;1.30;;;;;;;-145.69;49.81;52175.06;5091083;28;20835;-80
2023/10/16 09:22:50;;;;;;;2.70;1.30;;;;;;;-145.69;50.61;52212.69;5093814;28;20285;-80
2023/10/16 09:25:23;;;;;;;2.92;1.20;;;;;;;-145.69;50.24;52139.41;5092506;28;20443;-80
2023/10/16 09:27:52;;;;;;;2.17;1.17;;;;;;;-145.69;49.71;52155.25;5093178;28;20202;-80
2023/10/16 09:30:20;;;;;;;3.53;1.20;;;;;;;-145.69;48.99;52135.47;5092831;28;20229;-80
2023/10/16 09:32:51;;;;;;;2.43;1.27;;;;;;;-145.69;48.16;52186.94;5094691;28;20194;-80
2023/10/16 09:35:30;;;;;;;2.47;1.03;;;;;;;-145.69;48.05;52175.06;5090350;28;20207;-82
2023/10/16 09:38:10;;;;;;;2.90;1.27;;;;;;;-145.69;48.72;52143.38;5075667;28;20458;-81
2023/10/16 09:40:38;;;;;;;3.93;1.27;;;;;;;-145.69;48.15;52163.19;5088042;28;20206;-80
2023/10/16 09:43:06;;;;;;;7.27;1.20;;;;;;;-145.69;47.32;52149.31;5095647;28;20705;-81
2023/10/16 09:45:34;;;;;;;2.03;1.00;;;;;;;-145.69;47.82;52169.13;5093073;28;20198;-80
2023/10/16 09:48:07;;;;;;;5.20;1.20;;;;;;;-145.69;47.13;52169.13;5092792;28;20198;-80
2023/10/16 09:50:34;;;;;;;3.47;1.27;;;;;;;-145.69;47.56;52175.06;5092481;28;20692;-80
2023/10/16 09:53:01;;;;;;;3.77;1.10;;;;;;;-145.69;46.92;52165.16;5092228;28;20198;-80
2023/10/16 09:55:32;;;;;;;2.13;1.23;;;;;;;-145.69;45.91;52175.06;5092538;28;20599;-80
2023/10/16 09:58:05;;;;;;;3.67;1.07;;;;;;;-145.69;45.53;52151.28;5092205;28;20267;-80
2023/10/16 10:00:32;;;;;;;3.10;1.00;;;;;;;-145.69;45.46;52135.47;5092730;28;20242;-80
2023/10/16 10:03:05;;;;;;;3.63;0.90;;;;;;;-145.69;44.65;52143.38;5092297;28;20205;-80
2023/10/16 10:05:41;;;;;;;1.93;1.10;;;;;;;-145.69;43.85;52147.34;5096934;28;20209;-80
2023/10/16 10:08:17;;;;;;;1.10;0.90;;;;;;;-145.69;44.58;52151.28;5096335;28;20193;-81
2023/10/16 10:11:17;;;;;;;1.53;1.00;;;;;;;-145.69;44.93;52147.34;5096996;28;20229;-80
2023/10/16 10:14:09;;;;;;;1.63;0.90;;;;;;;-145.69;42.53;52141.41;5096449;28;20715;-80
2023/10/16 10:16:37;;;;;;;4.37;1.23;;;;;;;-145.69;42.10;52103.78;5096525;28;20194;-80
2023/10/16 10:19:10;;;;;;;2.47;0.90;;;;;;;-145.69;42.02;52151.28;5096500;28;20213;-80
2023/10/16 10:21:45;;;;;;;4.20;1.07;;;;;;;-145.69;42.00;52145.34;5096716;28;20225;-80
2023/10/16 10:24:15;;;;;;;2.33;0.93;;;;;;;-145.69;42.53;52151.28;5095802;28;20190;-80
2023/10/16 10:26:42;;;;;;;5.10;0.93;;;;;;;-145.69;42.59;52151.28;5096108;28;20199;-79
2023/10/16 10:29:10;;;;;;;2.17;1.00;;;;;;;-145.69;42.23;52153.28;5096043;28;20253;-80
2023/10/16 10:31:37;;;;;;;1.70;0.93;;;;;;;-145.69;41.96;52175.06;5096591;28;20233;-80
2023/10/16 10:34:18;;;;;;;1.90;0.87;;;;;;;-145.69;40.89;52145.34;5096190;28;20198;-80
2023/10/16 10:36:45;;;;;;;3.20;1.03;;;;;;;-145.69;40.70;52135.47;5096702;28;20210;-80
2023/10/16 10:39:39;;;;;;;2.70;0.90;;;;;;;-145.69;40.21;52135.47;5095419;28;20198;-80
2023/10/16 10:42:09;;;;;;;1.80;0.70;;;;;;;-145.69;40.86;52173.09;5096305;28;20278;-80
2023/10/16 10:44:43;;;;;;;2.67;0.97;;;;;;;-145.69;40.40;52143.38;5096391;28;20243;-80
2023/10/16 10:47:19;;;;;;;2.20;0.97;;;;;;;-145.69;40.34;52113.66;5096111;28;20234;-80
2023/10/16 10:49:45;;;;;;;4.17;0.90;;;;;;;-145.69;41.24;52173.09;5095195;28;20306;-80
2023/10/16 10:52:15;;;;;;;2.47;1.10;;;;;;;-145.69;40.26;52123.56;5096049;28;20567;-80
2023/10/16 10:54:43;;;;;;;2.30;1.13;;;;;;;-145.69;39.99;52123.56;5095538;28;20194;-80
2023/10/16 10:57:18;;;;;;;5.20;1.00;;;;;;;-145.69;41.48;52105.75;5096012;28;20206;-80
2023/10/16 10:59:48;;;;;;;3.27;0.90;;;;;;;-145.69;40.84;52093.88;5092208;28;20552;-80
2023/10/16 11:02:23;;;;;;;2.20;0.90;;;;;;;-145.69;40.03;52115.66;5095775;28;20210;-80
2023/10/16 11:04:54;;;;;;;1.70;1.00;;;;;;;-145.69;39.72;52089.91;5095217;28;20194;-80
2023/10/16 11:07:29;;;;;;;1.63;0.90;;;;;;;-145.69;40.63;52129.50;5095981;28;20197;-80
2023/10/16 11:09:57;;;;;;;1.97;0.70;;;;;;;-145.69;40.28;52125.56;5095752;28;20225;-80
2023/10/16 11:12:25;;;;;;;2.17;0.80;;;;;;;-145.69;40.50;52117.63;5095285;28;20251;-80
2023/10/16 11:14:54;;;;;;;0.60;0.60;;;;;;;-145.69;40.39;52083.97;5094961;28;20244;-80
2023/10/16 11:17:32;;;;;;;2.63;1.10;;;;;;;-145.69;40.24;52127.53;5095395;28;20230;-80
2023/10/16 11:20:11;;;;;;;1.77;1.00;;;;;;;-145.69;40.28;52111.69;5095730;28;20212;-80
2023/10/16 11:22:43;;;;;;;3.07;0.90;;;;;;;-145.69;40.41;52159.22;5095340;28;20205;-80
2023/10/16 11:25:12;;;;;;;3.00;1.00;;;;;;;-145.69;39.65;52091.88;5094808;28;20210;-80
2023/10/16 11:27:41;;;;;;;1.20;0.70;;;;;;;-145.69;38.87;52147.34;5095555;28;20198;-80
2023/10/16 11:30:11;;;;;;;3.70;0.87;;;;;;;-145.69;38.93;52123.56;5095110;28;20706;-80
2023/10/16 11:32:41;;;;;;;5.70;0.97;;;;;;;-145.69;39.12;52143.38;5095134;28;20247;-79
2023/10/16 11:35:15;;;;;;;3.87;0.90;;;;;;;-145.69;38.32;52109.72;5095162;28;20194;-80
2023/10/16 11:37:43;;;;;;;2.33;0.80;;;;;;;-145.69;39.38;52133.47;5095065;28;20205;-80
2023/10/16 11:40:18;;;;;;;2.63;0.70;;;;;;;-145.69;38.48;52121.59;5095254;28;20252;-80
2023/10/16 11:42:45;;;;;;;1.43;0.80;;;;;;;-145.69;39.43;52115.66;5095361;28;20251;-80
2023/10/16 11:45:20;;;;;;;3.43;1.00;;;;;;;-145.69;38.93;52111.69;5094154;28;20628;-79
2023/10/16 11:48:03;;;;;;;1.27;0.70;;;;;;;-145.69;39.12;52127.53;5097561;28;20204;-81
2023/10/16 11:50:38;;;;;;;1.83;0.50;;;;;;;-145.69;38.79;52111.69;5096230;28;20237;-81
2023/10/16 11:53:07;;;;;;;1.57;0.77;;;;;;;-145.69;37.21;52107.72;5094875;28;20255;-80
2023/10/16 11:55:36;;;;;;;1.07;0.83;;;;;;;-145.69;38.19;52076.03;5094155;28;20653;-81
2023/10/16 11:58:03;;;;;;;1.53;0.90;;;;;;;-145.69;38.52;52129.50;5094305;28;20195;-80
2023/10/16 12:00:31;;;;;;;1.00;0.70;;;;;;;-145.69;38.95;52123.56;5094501;28;20198;-81
2023/10/16 12:02:57;;;;;;;1.70;0.83;;;;;;;-145.69;38.78;52111.69;5094560;28;20222;-81
2023/10/16 12:05:28;;;;;;;3.37;0.80;;;;;;;-145.69;37.78;52103.78;5094537;28;20672;-80
2023/10/16 12:07:56;;;;;;;3.43;1.00;;;;;;;-145.69;38.14;52095.84;5094423;28;20252;-81
2023/10/16 12:10:23;;;;;;;1.23;0.70;;;;;;;-145.69;38.25;52121.59;5094560;28;20222;-81
2023/10/16 12:12:50;;;;;;;1.40;0.90;;;;;;;-145.69;37.34;52119.63;5094371;28;20194;-80
2023/10/16 12:15:16;;;;;;;1.93;0.73;;;;;;;-145.69;38.56;52095.84;5094246;28;20353;-80
2023/10/16 12:17:44;;;;;;;1.80;0.90;;;;;;;-145.69;38.96;52089.91;5094319;28;20241;-81
2023/10/16 12:20:12;;;;;;;3.57;0.97;;;;;;;-145.69;37.60;52119.63;5094007;28;20652;-81
2023/10/16 12:22:39;;;;;;;2.20;0.70;;;;;;;-145.69;37.57;52133.47;5094253;28;20202;-81
2023/10/16 12:25:09;;;;;;;2.03;0.70;;;;;;;-145.69;36.08;52083.97;5093603;28;20302;-81
2023/10/16 12:27:36;;;;;;;4.78;0.82;;;;;;;-145.69;36.24;52109.72;5093713;28;20233;-82
2023/10/16 12:30:04;;;;;;;1.70;0.90;;;;;;;-145.69;35.60;52115.66;5094034;28;20576;-82
2023/10/16 12:32:33;;;;;;;1.87;0.70;;;;;;;-145.69;36.14;52101.78;5093896;28;20281;-81
2023/10/16 12:35:02;;;;;;;1.83;1.00;;;;;;;-145.69;35.02;52087.94;5093850;28;20190;-82
2023/10/16 12:37:29;;;;;;;2.10;0.67;;;;;;;-145.69;36.08;52115.66;5094122;28;20199;-82
2023/10/16 12:39:56;;;;;;;2.90;0.80;;;;;;;-145.69;34.97;52103.78;5093449;28;20497;-81
2023/10/16 12:42:30;;;;;;;2.05;0.80;;;;;;;-145.69;33.85;52115.66;5093602;28;20287;-82
2023/10/16 12:44:57;;;;;;;0.98;0.60;;;;;;;-145.69;34.87;52107.72;5094091;28;20201;-81
2023/10/16 12:47:26;;;;;;;1.83;0.85;;;;;;;-145.69;34.13;52121.59;5093745;28;20202;-81
2023/10/16 12:49:54;;;;;;;0.93;0.55;;;;;;;-145.69;33.85;52056.25;5093679;28;20692;-82
2023/10/16 12:52:22;;;;;;;1.33;0.50;;;;;;;-145.69;34.09;52068.13;5090124;28;20198;-82
2023/10/16 12:54:52;;;;;;;1.87;0.70;;;;;;;-145.69;33.42;52072.09;5092672;28;20201;-82